sensor_id;sensor_type;location;lat;lon;timestamp;P1;durP1;ratioP1;P2;durP2;ratioP2
17510;SDS011;8873;48.818;9.422;2023-03-01T00:01:18;28.97;;;12.93;;
17510;SDS011;8873;48.818;9.422;2023-03-01T00:03:46;39.30;;;14.77;;
17510;SDS011;8873;48.818;9.422;2023-03-01T00:06:14;35.70;;;14.60;;
17510;SDS011;8873;48.818;9.422;2023-03-01T00:08:43;33.13;;;15.03;;
17510;SDS011;8873;48.818;9.422;2023-03-01T00:11:13;37.27;;;15.97;;
17510;SDS011;8873;48.818;9.422;2023-03-01T00:13:42;37.57;;;15.07;;
17510;SDS011;8873;48.818;9.422;2023-03-01T00:16:11;37.07;;;15.60;;
17510;SDS011;8873;48.818;9.422;2023-03-01T00:18:39;39.90;;;15.30;;
17510;SDS011;8873;48.818;9.422;2023-03-01T00:21:06;38.43;;;14.80;;
17510;SDS011;8873;48.818;9.422;2023-03-01T00:23:34;37.33;;;15.10;;
17510;SDS011;8873;48.818;9.422;2023-03-01T00:26:05;33.93;;;14.67;;
17510;SDS011;8873;48.818;9.422;2023-03-01T00:28:34;36.83;;;14.43;;
17510;SDS011;8873;48.818;9.422;2023-03-01T00:31:02;34.90;;;15.40;;
17510;SDS011;8873;48.818;9.422;2023-03-01T00:33:30;34.57;;;14.23;;
17510;SDS011;8873;48.818;9.422;2023-03-01T00:35:58;34.03;;;14.50;;
17510;SDS011;8873;48.818;9.422;2023-03-01T00:38:27;32.23;;;14.33;;
17510;SDS011;8873;48.818;9.422;2023-03-01T00:40:54;39.03;;;15.27;;
17510;SDS011;8873;48.818;9.422;2023-03-01T00:43:22;33.53;;;14.23;;
17510;SDS011;8873;48.818;9.422;2023-03-01T00:45:54;34.00;;;14.50;;
17510;SDS011;8873;48.818;9.422;2023-03-01T00:48:21;33.87;;;14.23;;
17510;SDS011;8873;48.818;9.422;2023-03-01T00:50:49;32.57;;;13.53;;
17510;SDS011;8873;48.818;9.422;2023-03-01T00:53:17;36.63;;;15.70;;
17510;SDS011;8873;48.818;9.422;2023-03-01T00:55:44;43.73;;;14.63;;
17510;SDS011;8873;48.818;9.422;2023-03-01T00:58:12;36.53;;;15.40;;
17510;SDS011;8873;48.818;9.422;2023-03-01T01:00:39;32.33;;;13.60;;
17510;SDS011;8873;48.818;9.422;2023-03-01T01:03:08;38.80;;;15.43;;
17510;SDS011;8873;48.818;9.422;2023-03-01T01:05:36;34.03;;;14.07;;
17510;SDS011;8873;48.818;9.422;2023-03-01T01:08:03;34.00;;;14.00;;
17510;SDS011;8873;48.818;9.422;2023-03-01T01:10:33;36.60;;;15.07;;
17510;SDS011;8873;48.818;9.422;2023-03-01T01:13:00;38.47;;;15.53;;
17510;SDS011;8873;48.818;9.422;2023-03-01T01:15:32;32.40;;;15.13;;
17510;SDS011;8873;48.818;9.422;2023-03-01T01:18:00;37.17;;;14.30;;
17510;SDS011;8873;48.818;9.422;2023-03-01T01:20:29;35.80;;;14.70;;
17510;SDS011;8873;48.818;9.422;2023-03-01T01:22:57;39.27;;;14.67;;
17510;SDS011;8873;48.818;9.422;2023-03-01T01:25:25;38.87;;;16.70;;
17510;SDS011;8873;48.818;9.422;2023-03-01T01:27:53;37.80;;;14.73;;
17510;SDS011;8873;48.818;9.422;2023-03-01T01:30:21;34.37;;;14.70;;
17510;SDS011;8873;48.818;9.422;2023-03-01T01:32:48;45.37;;;16.43;;
17510;SDS011;8873;48.818;9.422;2023-03-01T01:35:16;40.83;;;15.73;;
17510;SDS011;8873;48.818;9.422;2023-03-01T01:37:45;36.13;;;15.77;;
17510;SDS011;8873;48.818;9.422;2023-03-01T01:40:12;37.53;;;14.60;;
17510;SDS011;8873;48.818;9.422;2023-03-01T01:42:40;36.67;;;16.17;;
17510;SDS011;8873;48.818;9.422;2023-03-01T01:45:24;40.97;;;16.07;;
17510;SDS011;8873;48.818;9.422;2023-03-01T01:47:53;43.03;;;17.00;;
17510;SDS011;8873;48.818;9.422;2023-03-01T01:50:22;38.83;;;15.70;;
17510;SDS011;8873;48.818;9.422;2023-03-01T01:52:51;34.17;;;14.83;;
17510;SDS011;8873;48.818;9.422;2023-03-01T01:55:21;42.83;;;16.17;;
17510;SDS011;8873;48.818;9.422;2023-03-01T01:57:51;46.10;;;16.33;;
17510;SDS011;8873;48.818;9.422;2023-03-01T02:00:21;37.80;;;15.93;;
17510;SDS011;8873;48.818;9.422;2023-03-01T02:02:50;34.33;;;15.20;;
17510;SDS011;8873;48.818;9.422;2023-03-01T02:05:22;37.03;;;14.80;;
17510;SDS011;8873;48.818;9.422;2023-03-01T02:07:52;35.47;;;14.50;;
17510;SDS011;8873;48.818;9.422;2023-03-01T02:10:20;34.67;;;14.43;;
17510;SDS011;8873;48.818;9.422;2023-03-01T02:12:48;36.00;;;14.57;;
17510;SDS011;8873;48.818;9.422;2023-03-01T02:15:16;37.57;;;14.80;;
17510;SDS011;8873;48.818;9.422;2023-03-01T02:17:43;34.40;;;13.80;;
17510;SDS011;8873;48.818;9.422;2023-03-01T02:20:13;30.93;;;14.43;;
17510;SDS011;8873;48.818;9.422;2023-03-01T02:22:43;32.87;;;13.63;;
17510;SDS011;8873;48.818;9.422;2023-03-01T02:27:49;31.70;;;13.33;;
17510;SDS011;8873;48.818;9.422;2023-03-01T02:30:22;30.97;;;13.37;;
17510;SDS011;8873;48.818;9.422;2023-03-01T02:32:52;28.90;;;13.17;;
17510;SDS011;8873;48.818;9.422;2023-03-01T02:35:19;34.93;;;15.03;;
17510;SDS011;8873;48.818;9.422;2023-03-01T02:37:46;30.83;;;13.27;;
17510;SDS011;8873;48.818;9.422;2023-03-01T02:40:16;31.80;;;14.17;;
17510;SDS011;8873;48.818;9.422;2023-03-01T02:42:45;33.63;;;14.20;;
17510;SDS011;8873;48.818;9.422;2023-03-01T02:45:14;31.87;;;13.57;;
17510;SDS011;8873;48.818;9.422;2023-03-01T02:47:43;31.57;;;13.83;;
17510;SDS011;8873;48.818;9.422;2023-03-01T02:50:14;37.77;;;14.93;;
17510;SDS011;8873;48.818;9.422;2023-03-01T02:52:44;34.47;;;14.73;;
17510;SDS011;8873;48.818;9.422;2023-03-01T02:55:16;34.97;;;14.13;;
17510;SDS011;8873;48.818;9.422;2023-03-01T02:57:45;33.10;;;13.77;;
17510;SDS011;8873;48.818;9.422;2023-03-01T03:00:17;30.10;;;14.23;;
17510;SDS011;8873;48.818;9.422;2023-03-01T03:02:48;36.80;;;13.97;;
17510;SDS011;8873;48.818;9.422;2023-03-01T03:05:17;29.33;;;14.17;;
17510;SDS011;8873;48.818;9.422;2023-03-01T03:07:45;34.17;;;13.63;;
17510;SDS011;8873;48.818;9.422;2023-03-01T03:10:14;29.47;;;13.67;;
17510;SDS011;8873;48.818;9.422;2023-03-01T03:12:42;30.27;;;14.43;;
17510;SDS011;8873;48.818;9.422;2023-03-01T03:15:10;34.93;;;14.27;;
17510;SDS011;8873;48.818;9.422;2023-03-01T03:17:39;31.73;;;13.03;;
17510;SDS011;8873;48.818;9.422;2023-03-01T03:20:11;34.47;;;14.37;;
17510;SDS011;8873;48.818;9.422;2023-03-01T03:22:39;31.63;;;13.97;;
17510;SDS011;8873;48.818;9.422;2023-03-01T03:25:07;33.70;;;14.10;;
17510;SDS011;8873;48.818;9.422;2023-03-01T03:27:36;29.87;;;13.97;;
17510;SDS011;8873;48.818;9.422;2023-03-01T03:30:05;33.93;;;13.47;;
17510;SDS011;8873;48.818;9.422;2023-03-01T03:32:35;35.27;;;14.37;;
17510;SDS011;8873;48.818;9.422;2023-03-01T03:35:03;35.47;;;14.40;;
17510;SDS011;8873;48.818;9.422;2023-03-01T03:37:37;35.00;;;13.33;;
17510;SDS011;8873;48.818;9.422;2023-03-01T03:40:22;30.43;;;13.50;;
17510;SDS011;8873;48.818;9.422;2023-03-01T03:42:50;34.20;;;14.13;;
17510;SDS011;8873;48.818;9.422;2023-03-01T03:45:18;27.20;;;12.87;;
17510;SDS011;8873;48.818;9.422;2023-03-01T03:47:45;34.80;;;13.90;;
17510;SDS011;8873;48.818;9.422;2023-03-01T03:50:14;30.23;;;13.77;;
17510;SDS011;8873;48.818;9.422;2023-03-01T03:52:43;36.70;;;14.93;;
17510;SDS011;8873;48.818;9.422;2023-03-01T03:55:11;33.17;;;13.90;;
17510;SDS011;8873;48.818;9.422;2023-03-01T03:57:39;31.10;;;13.40;;
17510;SDS011;8873;48.818;9.422;2023-03-01T04:00:09;29.27;;;14.00;;
17510;SDS011;8873;48.818;9.422;2023-03-01T04:02:39;37.10;;;14.57;;
17510;SDS011;8873;48.818;9.422;2023-03-01T04:05:07;34.57;;;14.87;;
17510;SDS011;8873;48.818;9.422;2023-03-01T04:07:35;34.63;;;14.37;;
17510;SDS011;8873;48.818;9.422;2023-03-01T04:10:05;33.17;;;14.27;;
17510;SDS011;8873;48.818;9.422;2023-03-01T04:12:33;37.77;;;14.33;;
17510;SDS011;8873;48.818;9.422;2023-03-01T04:15:01;32.87;;;14.47;;
17510;SDS011;8873;48.818;9.422;2023-03-01T04:17:38;33.10;;;14.73;;
17510;SDS011;8873;48.818;9.422;2023-03-01T04:20:08;32.27;;;13.70;;
17510;SDS011;8873;48.818;9.422;2023-03-01T04:22:37;30.27;;;13.17;;
17510;SDS011;8873;48.818;9.422;2023-03-01T04:25:07;34.77;;;14.27;;
17510;SDS011;8873;48.818;9.422;2023-03-01T04:27:40;32.57;;;14.27;;
17510;SDS011;8873;48.818;9.422;2023-03-01T04:30:08;36.53;;;15.17;;
17510;SDS011;8873;48.818;9.422;2023-03-01T04:32:36;33.80;;;15.40;;
17510;SDS011;8873;48.818;9.422;2023-03-01T04:35:04;29.50;;;13.60;;
17510;SDS011;8873;48.818;9.422;2023-03-01T04:37:31;34.63;;;14.67;;
17510;SDS011;8873;48.818;9.422;2023-03-01T04:39:59;36.70;;;14.43;;
17510;SDS011;8873;48.818;9.422;2023-03-01T04:42:28;32.77;;;13.63;;
17510;SDS011;8873;48.818;9.422;2023-03-01T04:44:55;33.80;;;14.53;;
17510;SDS011;8873;48.818;9.422;2023-03-01T04:47:23;36.33;;;15.33;;
17510;SDS011;8873;48.818;9.422;2023-03-01T04:49:51;39.83;;;15.63;;
17510;SDS011;8873;48.818;9.422;2023-03-01T04:52:18;35.00;;;14.67;;
17510;SDS011;8873;48.818;9.422;2023-03-01T04:54:46;33.70;;;15.53;;
17510;SDS011;8873;48.818;9.422;2023-03-01T04:57:13;35.20;;;14.37;;
17510;SDS011;8873;48.818;9.422;2023-03-01T04:59:42;33.73;;;14.40;;
17510;SDS011;8873;48.818;9.422;2023-03-01T05:02:10;37.17;;;14.63;;
17510;SDS011;8873;48.818;9.422;2023-03-01T05:04:40;33.00;;;14.27;;
17510;SDS011;8873;48.818;9.422;2023-03-01T05:07:08;32.67;;;13.93;;
17510;SDS011;8873;48.818;9.422;2023-03-01T05:09:37;37.53;;;15.77;;
17510;SDS011;8873;48.818;9.422;2023-03-01T05:12:05;32.57;;;13.67;;
17510;SDS011;8873;48.818;9.422;2023-03-01T05:14:33;29.57;;;14.37;;
17510;SDS011;8873;48.818;9.422;2023-03-01T05:17:02;35.77;;;14.43;;
17510;SDS011;8873;48.818;9.422;2023-03-01T05:19:30;31.30;;;13.57;;
17510;SDS011;8873;48.818;9.422;2023-03-01T05:21:59;37.60;;;15.23;;
17510;SDS011;8873;48.818;9.422;2023-03-01T05:24:30;34.20;;;13.83;;
17510;SDS011;8873;48.818;9.422;2023-03-01T05:26:58;34.53;;;14.10;;
17510;SDS011;8873;48.818;9.422;2023-03-01T05:29:27;41.07;;;17.63;;
17510;SDS011;8873;48.818;9.422;2023-03-01T05:31:56;40.30;;;17.10;;
17510;SDS011;8873;48.818;9.422;2023-03-01T05:34:26;38.87;;;16.67;;
17510;SDS011;8873;48.818;9.422;2023-03-01T05:36:54;38.07;;;15.50;;
17510;SDS011;8873;48.818;9.422;2023-03-01T05:39:22;38.60;;;15.80;;
17510;SDS011;8873;48.818;9.422;2023-03-01T05:41:51;33.00;;;15.57;;
17510;SDS011;8873;48.818;9.422;2023-03-01T05:44:19;39.30;;;15.57;;
17510;SDS011;8873;48.818;9.422;2023-03-01T05:46:46;35.37;;;16.57;;
17510;SDS011;8873;48.818;9.422;2023-03-01T05:49:14;41.00;;;16.07;;
17510;SDS011;8873;48.818;9.422;2023-03-01T05:51:47;36.53;;;16.13;;
17510;SDS011;8873;48.818;9.422;2023-03-01T05:54:15;36.60;;;17.03;;
17510;SDS011;8873;48.818;9.422;2023-03-01T05:56:43;37.93;;;16.60;;
17510;SDS011;8873;48.818;9.422;2023-03-01T05:59:11;35.60;;;15.90;;
17510;SDS011;8873;48.818;9.422;2023-03-01T06:01:39;38.07;;;15.87;;
17510;SDS011;8873;48.818;9.422;2023-03-01T06:04:07;37.47;;;15.37;;
17510;SDS011;8873;48.818;9.422;2023-03-01T06:06:35;37.27;;;15.47;;
17510;SDS011;8873;48.818;9.422;2023-03-01T06:09:05;45.13;;;16.20;;
17510;SDS011;8873;48.818;9.422;2023-03-01T06:11:35;38.37;;;16.50;;
17510;SDS011;8873;48.818;9.422;2023-03-01T06:14:03;42.97;;;18.30;;
17510;SDS011;8873;48.818;9.422;2023-03-01T06:16:33;39.97;;;16.07;;
17510;SDS011;8873;48.818;9.422;2023-03-01T06:19:00;39.70;;;17.23;;
17510;SDS011;8873;48.818;9.422;2023-03-01T06:21:28;44.07;;;17.67;;
17510;SDS011;8873;48.818;9.422;2023-03-01T06:23:55;39.30;;;16.73;;
17510;SDS011;8873;48.818;9.422;2023-03-01T06:26:24;36.37;;;15.73;;
17510;SDS011;8873;48.818;9.422;2023-03-01T06:28:52;45.67;;;16.90;;
17510;SDS011;8873;48.818;9.422;2023-03-01T06:31:19;47.27;;;16.93;;
17510;SDS011;8873;48.818;9.422;2023-03-01T06:33:47;41.50;;;17.40;;
17510;SDS011;8873;48.818;9.422;2023-03-01T06:36:15;35.00;;;16.20;;
17510;SDS011;8873;48.818;9.422;2023-03-01T06:38:44;38.57;;;16.47;;
17510;SDS011;8873;48.818;9.422;2023-03-01T06:41:12;40.63;;;15.90;;
17510;SDS011;8873;48.818;9.422;2023-03-01T06:43:41;37.83;;;15.93;;
17510;SDS011;8873;48.818;9.422;2023-03-01T06:46:09;32.60;;;16.17;;
17510;SDS011;8873;48.818;9.422;2023-03-01T06:48:36;41.47;;;16.30;;
17510;SDS011;8873;48.818;9.422;2023-03-01T06:51:04;39.20;;;15.10;;
17510;SDS011;8873;48.818;9.422;2023-03-01T06:53:32;40.93;;;15.67;;
17510;SDS011;8873;48.818;9.422;2023-03-01T06:56:01;35.80;;;14.90;;
17510;SDS011;8873;48.818;9.422;2023-03-01T06:58:29;38.87;;;15.10;;
17510;SDS011;8873;48.818;9.422;2023-03-01T07:00:58;39.97;;;15.73;;
17510;SDS011;8873;48.818;9.422;2023-03-01T07:03:25;36.23;;;14.50;;
17510;SDS011;8873;48.818;9.422;2023-03-01T07:05:53;38.17;;;15.33;;
17510;SDS011;8873;48.818;9.422;2023-03-01T07:08:20;37.63;;;15.63;;
17510;SDS011;8873;48.818;9.422;2023-03-01T07:10:48;44.67;;;16.10;;
17510;SDS011;8873;48.818;9.422;2023-03-01T07:13:17;39.07;;;14.90;;
17510;SDS011;8873;48.818;9.422;2023-03-01T07:15:45;37.80;;;16.20;;
17510;SDS011;8873;48.818;9.422;2023-03-01T07:18:14;45.13;;;14.93;;
17510;SDS011;8873;48.818;9.422;2023-03-01T07:20:42;38.33;;;15.30;;
17510;SDS011;8873;48.818;9.422;2023-03-01T07:23:09;38.63;;;15.40;;
17510;SDS011;8873;48.818;9.422;2023-03-01T07:25:37;32.23;;;14.00;;
17510;SDS011;8873;48.818;9.422;2023-03-01T07:28:04;35.07;;;15.03;;
17510;SDS011;8873;48.818;9.422;2023-03-01T07:30:32;37.13;;;14.63;;
17510;SDS011;8873;48.818;9.422;2023-03-01T07:33:02;35.60;;;14.93;;
17510;SDS011;8873;48.818;9.422;2023-03-01T07:35:33;38.93;;;15.77;;
17510;SDS011;8873;48.818;9.422;2023-03-01T07:38:01;34.40;;;14.67;;
17510;SDS011;8873;48.818;9.422;2023-03-01T07:40:28;30.23;;;13.80;;
17510;SDS011;8873;48.818;9.422;2023-03-01T07:42:56;37.43;;;15.40;;
17510;SDS011;8873;48.818;9.422;2023-03-01T07:45:24;36.27;;;14.80;;
17510;SDS011;8873;48.818;9.422;2023-03-01T07:47:52;40.10;;;15.57;;
17510;SDS011;8873;48.818;9.422;2023-03-01T07:50:20;35.33;;;15.07;;
17510;SDS011;8873;48.818;9.422;2023-03-01T07:52:50;33.93;;;14.83;;
17510;SDS011;8873;48.818;9.422;2023-03-01T07:55:17;35.80;;;14.50;;
17510;SDS011;8873;48.818;9.422;2023-03-01T07:57:47;38.23;;;14.83;;
17510;SDS011;8873;48.818;9.422;2023-03-01T08:00:15;36.57;;;14.80;;
17510;SDS011;8873;48.818;9.422;2023-03-01T08:02:48;34.90;;;14.17;;
17510;SDS011;8873;48.818;9.422;2023-03-01T08:05:16;36.00;;;15.20;;
17510;SDS011;8873;48.818;9.422;2023-03-01T08:07:43;35.87;;;14.37;;
17510;SDS011;8873;48.818;9.422;2023-03-01T08:10:14;34.10;;;14.20;;
17510;SDS011;8873;48.818;9.422;2023-03-01T08:12:42;37.80;;;15.43;;
17510;SDS011;8873;48.818;9.422;2023-03-01T08:15:10;35.17;;;14.73;;
17510;SDS011;8873;48.818;9.422;2023-03-01T08:17:38;35.50;;;14.53;;
17510;SDS011;8873;48.818;9.422;2023-03-01T08:20:14;34.87;;;14.57;;
17510;SDS011;8873;48.818;9.422;2023-03-01T08:22:45;35.87;;;14.73;;
17510;SDS011;8873;48.818;9.422;2023-03-01T08:25:12;30.27;;;13.60;;
17510;SDS011;8873;48.818;9.422;2023-03-01T08:27:41;33.40;;;15.13;;
17510;SDS011;8873;48.818;9.422;2023-03-01T08:30:09;29.47;;;13.97;;
17510;SDS011;8873;48.818;9.422;2023-03-01T08:32:38;32.33;;;14.33;;
17510;SDS011;8873;48.818;9.422;2023-03-01T08:35:06;34.53;;;14.03;;
17510;SDS011;8873;48.818;9.422;2023-03-01T08:37:34;29.83;;;13.57;;
17510;SDS011;8873;48.818;9.422;2023-03-01T08:40:02;34.10;;;14.90;;
17510;SDS011;8873;48.818;9.422;2023-03-01T08:42:33;30.53;;;13.73;;
17510;SDS011;8873;48.818;9.422;2023-03-01T08:45:08;35.97;;;14.63;;
17510;SDS011;8873;48.818;9.422;2023-03-01T08:47:37;34.37;;;15.00;;
17510;SDS011;8873;48.818;9.422;2023-03-01T08:50:10;36.27;;;14.00;;
17510;SDS011;8873;48.818;9.422;2023-03-01T08:52:38;32.57;;;13.33;;
17510;SDS011;8873;48.818;9.422;2023-03-01T08:55:06;30.10;;;13.30;;
17510;SDS011;8873;48.818;9.422;2023-03-01T08:57:34;32.07;;;14.17;;
17510;SDS011;8873;48.818;9.422;2023-03-01T09:00:01;28.30;;;12.80;;
17510;SDS011;8873;48.818;9.422;2023-03-01T09:02:35;33.03;;;13.83;;
17510;SDS011;8873;48.818;9.422;2023-03-01T09:05:03;34.70;;;13.33;;
17510;SDS011;8873;48.818;9.422;2023-03-01T09:07:31;30.90;;;14.27;;
17510;SDS011;8873;48.818;9.422;2023-03-01T09:09:58;29.00;;;14.40;;
17510;SDS011;8873;48.818;9.422;2023-03-01T09:12:26;29.30;;;13.52;;
17510;SDS011;8873;48.818;9.422;2023-03-01T09:14:54;28.63;;;13.87;;
17510;SDS011;8873;48.818;9.422;2023-03-01T09:17:21;31.30;;;14.43;;
17510;SDS011;8873;48.818;9.422;2023-03-01T09:19:50;35.00;;;13.27;;
17510;SDS011;8873;48.818;9.422;2023-03-01T09:22:18;30.00;;;14.35;;
17510;SDS011;8873;48.818;9.422;2023-03-01T09:24:46;31.23;;;13.83;;
17510;SDS011;8873;48.818;9.422;2023-03-01T09:27:13;30.00;;;13.43;;
17510;SDS011;8873;48.818;9.422;2023-03-01T09:29:45;31.92;;;13.60;;
17510;SDS011;8873;48.818;9.422;2023-03-01T09:32:12;31.73;;;13.38;;
17510;SDS011;8873;48.818;9.422;2023-03-01T09:34:40;32.47;;;14.27;;
17510;SDS011;8873;48.818;9.422;2023-03-01T09:37:23;26.55;;;13.55;;
17510;SDS011;8873;48.818;9.422;2023-03-01T09:39:50;27.50;;;13.65;;
17510;SDS011;8873;48.818;9.422;2023-03-01T09:42:18;33.95;;;14.35;;
17510;SDS011;8873;48.818;9.422;2023-03-01T09:44:46;29.60;;;13.45;;
17510;SDS011;8873;48.818;9.422;2023-03-01T09:47:17;33.38;;;13.43;;
17510;SDS011;8873;48.818;9.422;2023-03-01T09:49:45;29.48;;;13.68;;
17510;SDS011;8873;48.818;9.422;2023-03-01T09:52:19;28.13;;;13.35;;
17510;SDS011;8873;48.818;9.422;2023-03-01T09:54:54;32.20;;;13.20;;
17510;SDS011;8873;48.818;9.422;2023-03-01T09:57:26;25.60;;;13.00;;
17510;SDS011;8873;48.818;9.422;2023-03-01T10:02:39;27.58;;;12.75;;
17510;SDS011;8873;48.818;9.422;2023-03-01T10:05:12;28.67;;;13.32;;
17510;SDS011;8873;48.818;9.422;2023-03-01T10:07:43;28.48;;;14.25;;
17510;SDS011;8873;48.818;9.422;2023-03-01T10:10:16;27.60;;;13.73;;
17510;SDS011;8873;48.818;9.422;2023-03-01T10:12:49;30.17;;;13.30;;
17510;SDS011;8873;48.818;9.422;2023-03-01T10:15:18;28.10;;;13.23;;
17510;SDS011;8873;48.818;9.422;2023-03-01T10:17:48;26.15;;;12.73;;
17510;SDS011;8873;48.818;9.422;2023-03-01T10:20:19;29.10;;;12.73;;
17510;SDS011;8873;48.818;9.422;2023-03-01T10:22:47;29.45;;;13.85;;
17510;SDS011;8873;48.818;9.422;2023-03-01T10:25:23;24.50;;;12.35;;
17510;SDS011;8873;48.818;9.422;2023-03-01T10:27:52;25.80;;;12.18;;
17510;SDS011;8873;48.818;9.422;2023-03-01T10:30:21;23.92;;;13.23;;
17510;SDS011;8873;48.818;9.422;2023-03-01T10:32:49;24.77;;;12.77;;
17510;SDS011;8873;48.818;9.422;2023-03-01T10:35:19;25.05;;;12.60;;
17510;SDS011;8873;48.818;9.422;2023-03-01T10:37:56;24.83;;;13.13;;
17510;SDS011;8873;48.818;9.422;2023-03-01T10:40:25;28.20;;;14.05;;
17510;SDS011;8873;48.818;9.422;2023-03-01T10:42:53;28.83;;;13.38;;
17510;SDS011;8873;48.818;9.422;2023-03-01T10:45:27;25.40;;;13.15;;
17510;SDS011;8873;48.818;9.422;2023-03-01T10:48:04;27.15;;;13.50;;
17510;SDS011;8873;48.818;9.422;2023-03-01T10:50:32;24.75;;;11.98;;
17510;SDS011;8873;48.818;9.422;2023-03-01T10:53:00;28.45;;;13.38;;
17510;SDS011;8873;48.818;9.422;2023-03-01T10:55:31;28.02;;;13.05;;
17510;SDS011;8873;48.818;9.422;2023-03-01T10:58:07;25.88;;;13.05;;
17510;SDS011;8873;48.818;9.422;2023-03-01T11:00:45;27.52;;;13.98;;
17510;SDS011;8873;48.818;9.422;2023-03-01T11:03:14;27.67;;;13.52;;
17510;SDS011;8873;48.818;9.422;2023-03-01T11:05:52;29.25;;;13.20;;
17510;SDS011;8873;48.818;9.422;2023-03-01T11:11:23;28.35;;;13.30;;
17510;SDS011;8873;48.818;9.422;2023-03-01T11:13:53;24.50;;;13.30;;
17510;SDS011;8873;48.818;9.422;2023-03-01T11:16:25;23.83;;;12.70;;
17510;SDS011;8873;48.818;9.422;2023-03-01T11:18:56;25.17;;;13.93;;
17510;SDS011;8873;48.818;9.422;2023-03-01T11:21:25;27.15;;;13.38;;
17510;SDS011;8873;48.818;9.422;2023-03-01T11:23:54;25.45;;;12.98;;
17510;SDS011;8873;48.818;9.422;2023-03-01T11:26:23;24.80;;;13.60;;
17510;SDS011;8873;48.818;9.422;2023-03-01T11:28:51;22.95;;;12.93;;
17510;SDS011;8873;48.818;9.422;2023-03-01T11:31:22;25.67;;;12.48;;
17510;SDS011;8873;48.818;9.422;2023-03-01T11:33:53;21.40;;;12.40;;
17510;SDS011;8873;48.818;9.422;2023-03-01T11:36:24;23.67;;;13.07;;
17510;SDS011;8873;48.818;9.422;2023-03-01T11:39:03;21.02;;;12.48;;
17510;SDS011;8873;48.818;9.422;2023-03-01T11:41:33;23.30;;;12.55;;
17510;SDS011;8873;48.818;9.422;2023-03-01T11:44:04;22.10;;;12.75;;
17510;SDS011;8873;48.818;9.422;2023-03-01T11:46:43;22.77;;;13.27;;
17510;SDS011;8873;48.818;9.422;2023-03-01T11:49:18;24.25;;;13.82;;
17510;SDS011;8873;48.818;9.422;2023-03-01T11:51:53;23.95;;;12.65;;
17510;SDS011;8873;48.818;9.422;2023-03-01T11:54:26;23.27;;;13.82;;
17510;SDS011;8873;48.818;9.422;2023-03-01T11:57:00;20.83;;;12.80;;
17510;SDS011;8873;48.818;9.422;2023-03-01T12:02:24;21.02;;;12.32;;
17510;SDS011;8873;48.818;9.422;2023-03-01T12:05:01;20.77;;;12.55;;
17510;SDS011;8873;48.818;9.422;2023-03-01T12:07:32;19.40;;;12.02;;
17510;SDS011;8873;48.818;9.422;2023-03-01T12:10:11;21.13;;;13.23;;
17510;SDS011;8873;48.818;9.422;2023-03-01T12:12:46;22.75;;;12.57;;
17510;SDS011;8873;48.818;9.422;2023-03-01T12:15:33;21.17;;;11.95;;
17510;SDS011;8873;48.818;9.422;2023-03-01T12:18:12;20.80;;;12.48;;
17510;SDS011;8873;48.818;9.422;2023-03-01T12:20:42;22.50;;;12.43;;
17510;SDS011;8873;48.818;9.422;2023-03-01T12:23:28;22.25;;;12.57;;
17510;SDS011;8873;48.818;9.422;2023-03-01T12:26:00;20.60;;;12.80;;
17510;SDS011;8873;48.818;9.422;2023-03-01T12:28:34;22.88;;;12.80;;
17510;SDS011;8873;48.818;9.422;2023-03-01T12:31:11;19.27;;;12.15;;
17510;SDS011;8873;48.818;9.422;2023-03-01T12:33:45;17.38;;;11.45;;
17510;SDS011;8873;48.818;9.422;2023-03-01T12:36:31;19.55;;;11.95;;
17510;SDS011;8873;48.818;9.422;2023-03-01T12:39:04;20.25;;;12.55;;
17510;SDS011;8873;48.818;9.422;2023-03-01T12:41:46;22.05;;;12.85;;
17510;SDS011;8873;48.818;9.422;2023-03-01T12:44:24;18.27;;;12.00;;
17510;SDS011;8873;48.818;9.422;2023-03-01T12:47:03;19.60;;;12.20;;
17510;SDS011;8873;48.818;9.422;2023-03-01T12:49:33;22.17;;;12.35;;
17510;SDS011;8873;48.818;9.422;2023-03-01T12:52:04;19.25;;;12.48;;
17510;SDS011;8873;48.818;9.422;2023-03-01T12:54:37;18.25;;;11.77;;
17510;SDS011;8873;48.818;9.422;2023-03-01T12:57:08;22.85;;;12.30;;
17510;SDS011;8873;48.818;9.422;2023-03-01T12:59:43;20.52;;;12.18;;
17510;SDS011;8873;48.818;9.422;2023-03-01T13:02:14;15.70;;;10.73;;
17510;SDS011;8873;48.818;9.422;2023-03-01T13:04:47;20.58;;;11.82;;
17510;SDS011;8873;48.818;9.422;2023-03-01T13:07:21;20.45;;;12.30;;
17510;SDS011;8873;48.818;9.422;2023-03-01T13:09:54;20.92;;;12.00;;
17510;SDS011;8873;48.818;9.422;2023-03-01T13:17:54;18.10;;;11.18;;
17510;SDS011;8873;48.818;9.422;2023-03-01T13:20:23;16.98;;;11.27;;
17510;SDS011;8873;48.818;9.422;2023-03-01T13:23:00;15.73;;;10.80;;
17510;SDS011;8873;48.818;9.422;2023-03-01T13:25:28;19.83;;;12.15;;
17510;SDS011;8873;48.818;9.422;2023-03-01T13:30:47;18.48;;;12.15;;
17510;SDS011;8873;48.818;9.422;2023-03-01T13:36:00;17.48;;;11.45;;
17510;SDS011;8873;48.818;9.422;2023-03-01T13:38:38;16.23;;;10.63;;
17510;SDS011;8873;48.818;9.422;2023-03-01T13:41:07;22.80;;;12.38;;
17510;SDS011;8873;48.818;9.422;2023-03-01T13:43:35;21.23;;;12.57;;
17510;SDS011;8873;48.818;9.422;2023-03-01T13:46:07;24.40;;;14.15;;
17510;SDS011;8873;48.818;9.422;2023-03-01T13:48:37;20.95;;;13.07;;
17510;SDS011;8873;48.818;9.422;2023-03-01T13:51:08;22.30;;;13.45;;
17510;SDS011;8873;48.818;9.422;2023-03-01T13:53:38;25.40;;;13.63;;
17510;SDS011;8873;48.818;9.422;2023-03-01T13:56:07;19.92;;;12.57;;
17510;SDS011;8873;48.818;9.422;2023-03-01T13:58:44;23.35;;;12.98;;
17510;SDS011;8873;48.818;9.422;2023-03-01T14:01:20;27.75;;;13.52;;
17510;SDS011;8873;48.818;9.422;2023-03-01T14:03:48;25.52;;;14.40;;
17510;SDS011;8873;48.818;9.422;2023-03-01T14:06:19;23.20;;;13.75;;
17510;SDS011;8873;48.818;9.422;2023-03-01T14:08:49;26.33;;;14.20;;
17510;SDS011;8873;48.818;9.422;2023-03-01T14:11:27;24.48;;;13.95;;
17510;SDS011;8873;48.818;9.422;2023-03-01T14:14:18;24.73;;;13.65;;
17510;SDS011;8873;48.818;9.422;2023-03-01T14:16:49;20.77;;;12.80;;
17510;SDS011;8873;48.818;9.422;2023-03-01T14:19:23;22.52;;;13.20;;
17510;SDS011;8873;48.818;9.422;2023-03-01T14:22:04;25.00;;;12.90;;
17510;SDS011;8873;48.818;9.422;2023-03-01T14:24:33;24.80;;;13.45;;
17510;SDS011;8873;48.818;9.422;2023-03-01T14:27:02;22.77;;;13.75;;
17510;SDS011;8873;48.818;9.422;2023-03-01T14:29:33;24.50;;;13.35;;
17510;SDS011;8873;48.818;9.422;2023-03-01T14:32:12;25.73;;;13.50;;
17510;SDS011;8873;48.818;9.422;2023-03-01T14:34:43;21.08;;;12.45;;
17510;SDS011;8873;48.818;9.422;2023-03-01T14:37:24;20.30;;;12.05;;
17510;SDS011;8873;48.818;9.422;2023-03-01T14:39:56;20.85;;;11.93;;
17510;SDS011;8873;48.818;9.422;2023-03-01T14:42:24;23.25;;;12.18;;
17510;SDS011;8873;48.818;9.422;2023-03-01T14:44:54;23.42;;;12.90;;
17510;SDS011;8873;48.818;9.422;2023-03-01T14:47:25;20.02;;;12.40;;
17510;SDS011;8873;48.818;9.422;2023-03-01T14:49:55;20.17;;;11.63;;
17510;SDS011;8873;48.818;9.422;2023-03-01T14:52:25;21.85;;;12.07;;
17510;SDS011;8873;48.818;9.422;2023-03-01T14:54:54;23.35;;;12.63;;
17510;SDS011;8873;48.818;9.422;2023-03-01T14:57:23;22.70;;;12.48;;
17510;SDS011;8873;48.818;9.422;2023-03-01T14:59:51;21.30;;;12.40;;
17510;SDS011;8873;48.818;9.422;2023-03-01T15:02:21;25.42;;;13.77;;
17510;SDS011;8873;48.818;9.422;2023-03-01T15:04:51;22.80;;;12.95;;
17510;SDS011;8873;48.818;9.422;2023-03-01T15:07:19;24.40;;;12.18;;
17510;SDS011;8873;48.818;9.422;2023-03-01T15:09:48;26.35;;;13.07;;
17510;SDS011;8873;48.818;9.422;2023-03-01T15:12:34;21.90;;;12.93;;